AirNav   Air Wisconsin pilot careers
 
 1173 users online  

AL79 Bartlett Ranch Airport
Pike Road, Alabama, USA

GOING TO PIKE ROAD?


FAA INFORMATION EFFECTIVE 03 JANUARY 2019

Location

FAA Identifier: AL79
Lat/Long: 32-16-10.5110N / 086-05-55.8590W
32-16.175183N / 086-05.930983W
32.2695864 / -86.0988497
(estimated)
Elevation: 305 ft. / 93 m (estimated)
Variation: 00W (1985)
From city: 1 mile SE of PIKE ROAD, AL
Time zone: UTC -6 (UTC -5 during Daylight Saving Time)
Zip code: 36064

Airport Operations

Airport use: Private use. Permission required prior to landing
Activation date: 11/1987
Control tower: no
ARTCC: ATLANTA CENTER
FSS: ANNISTON FLIGHT SERVICE STATION
Attendance: UNATNDD
Wind indicator: yes
Segmented circle: no

Airport Communications

WX ASOS at MGM (15 nm W): PHONE 334-288-0445

Nearby radio navigation aids

VOR radial/distance  VOR name  Freq  Var
MGMr073/11.6MONTGOMERY VORTAC112.1003E
TGEr237/25.3TUSKEGEE VOR/DME117.3002E

 
NDB name  Hdg/Dist  Freq  Var  ID
BLOOD005/26.336504WTOI - --- ..

Airport Services

Fuel available: 100LL

Runway Information

Runway 18/36

Dimensions: 2500 x 200 ft. / 762 x 61 m
Surface: turf
RUNWAY 18  RUNWAY 36
Traffic pattern: leftleft
Obstructions: none80 ft. pline, 1320 ft. from runway

Airport Ownership and Management from official FAA records

Ownership: Privately-owned
Owner: H B BARTLETT
BARTLETT RANCH
PIKE ROAD, AL 36064
Phone 205-288-9554
Manager: H B BARTLETT
BARTLETT RANCH
PIKE ROAD, AL 36064
Phone 205-288-9554

Airport Operational Statistics

Aircraft based on the field: 5
Single engine airplanes: 5
    

Instrument Procedures

There are no published instrument procedures at AL79.

Some nearby airports with instrument procedures:

KMGM - Montgomery Regional Airport (Dannelly Field) (15 nm W)
KMXF - Maxwell Air Force Base (15 nm NW)
08A - Wetumpka Municipal Airport (19 nm NW)
1A9 - Prattville Airport - Grouby Field (23 nm NW)
06A - Moton Field Municipal Airport (24 nm NE)
 
Loc | Ops | Rwys | IFR | FBO | Links
Com | Nav | Svcs | Stats | Notes
Area around AL79 (Bartlett Ranch Airport)
 
Road maps at: MapQuest Bing Google
 
Aerial photo
No photo
 
Sectional chart

 
Airport distance calculator
Flying to Bartlett Ranch Airport? Find the distance to fly.

From to AL79

Sunrise and sunset
Times for 21-Jan-2019
 Local
(UTC-6)
 Zulu
(UTC)
Morning civil twilight06:1912:19
Sunrise06:4512:45
Sunset17:0623:06
Evening civil twilight17:3323:33

Current date and time
Zulu (UTC)  22-Jan-2019 00:02:08
Local (UTC-6)  21-Jan-2019 18:02:08
 
METAR
KMXF 
15nm NW 
212356Z AUTO 07004KT 10SM CLR 07/M04 A3036 RMK AO2 SLP285 T00671044 10089 20050 57004 $
KMGM 
15nm W 
212353Z 00000KT 10SM CLR 04/M03 A3037 RMK AO2 SLP287 T00441028 10094 20039 56004
K1A9 
23nm NW 
212355Z AUTO 00000KT 10SM CLR 04/M02 A3037 RMK AO2 T00371025 10090 20036
KTOI 
26nm S 
212353Z AUTO 04003KT 10SM CLR 05/M02 A3037 RMK AO2 SLP285 T00501022 10106 20050 53002
TAF
KMGM 
15nm W 
211734Z 2118/2218 36005KT P6SM SCT250 FM220000 08004KT P6SM SKC FM220500 10006KT P6SM SKC
NOTAMs
Click for the latest NOTAMs
NOTAMs are issued by the DoD/FAA and will open in a separate window not controlled by AirNav.

 

 
 

Would you like to see your business listed on this page?

 If your business provides an interesting product or service to pilots, flight crews, aircraft, or users of the Bartlett Ranch Airport, you should consider listing it here.  To start the listing process, click on the button below
 
Add a business
 

Other Pages about Bartlett Ranch Airport

Update a link
 
Copyright © AirNav, LLC. All rights reserved. Privacy Policy  Contact